Terminal Aerodrome Forecast
Issued by NWS

Home | Current Version | Previous Version | Graphics & Text | Print | Product List | Glossary On
Versions: 1 2 3 4 5 6 7 8 9 10 11 12 13 14 15 16 17
411
FTUS43 KABR 262320
TAFPIR
TAF
KPIR 262320Z 2700/2724 31008KT P6SM BKN200
     FM270400 29006KT P6SM BKN110
     FM270600 28006KT P6SM VCSH OVC090
     FM270900 27005KT P6SM VCSH OVC050
     FM271800 27008KT P6SM SCT090=

USA.gov is the U.S. government's official web portal to all federal, state and local government web resources and services.